Aérodrome :







RETROUVEZ-NOUS SUR...

 
LOGIN :

S'inscrire | Disclaimer

   EN    FR    IT 

 









Légende :    VFR   VFR Marginal   IFR   IFR Intensif   IFR Très Intensif
Visi : 
Plafond : 
>= 8 km
>= 3000ft
5 à 8 km
1000 à 3000 ft
1500m à 5 km
500 à 1000 ft
800 à 1500m
200 à 500 ft
< 800m
< 200 ft
Symboles :   Orages  Brouillard  Fortes neiges  Fortes précipitations  Vent > 20 kt






- Altitude de l'aérodrome : 160 ft
- Code IATA : YYR


CYYR - Goose Bay

DERNIER METAR :
  • 171700Z 27016KT 15SM FEW025 FEW250 M04/M13 A3006 RMK CF1CI1 SLP184

METARs EXPIRÉS :
  • 171600Z 25013G21KT 15SM FEW025 M06/M12 A3007 RMK CF1 SLP185
  • 171500Z 26018G24KT 15SM FEW025 M06/M12 A3007 RMK SC1 SLP185

TAF TAF CYYR
Valide du 17 à 12h jusqu'au 18 à 12h UTC


171130Z 1712/1812 27012G22KT P6SM FEW025
FM172100 25012KT P6SM BKN080
FM180000 25010KT P6SM BKN030 RMK NXT FCST BY 171800Z



MET'MAP, la Météo Aéronautique d'un coup d'oeil ! - Copyright ORBIFLY Décembre 2007 - Disclaimer

ORBIFLY MET'MAP TEAM :

Programmation & Développement : Alexandra Zaïnal
Conception & Développement : Baudouin d'Aumeries
Co-Programmation & Développement : Marc-Olivier Méhu
Soutien technique & logistique : Manuel Goepfert

Contact : metmap@orbifly.com




SOURCES & CREDITS :

   NOAA